sensor_id;sensor_type;location;lat;lon;timestamp;P1;durP1;ratioP1;P2;durP2;ratioP2
4634;SDS011;2330;48.158;11.816;2023-05-20T00:00:00;4.33;;;4.03;;
4634;SDS011;2330;48.158;11.816;2023-05-20T00:02:27;4.93;;;4.43;;
4634;SDS011;2330;48.158;11.816;2023-05-20T00:04:54;4.27;;;3.87;;
4634;SDS011;2330;48.158;11.816;2023-05-20T00:07:21;5.80;;;4.03;;
4634;SDS011;2330;48.158;11.816;2023-05-20T00:09:48;6.17;;;4.60;;
4634;SDS011;2330;48.158;11.816;2023-05-20T00:12:15;4.53;;;4.13;;
4634;SDS011;2330;48.158;11.816;2023-05-20T00:14:41;3.80;;;3.60;;
4634;SDS011;2330;48.158;11.816;2023-05-20T00:17:08;4.33;;;4.03;;
4634;SDS011;2330;48.158;11.816;2023-05-20T00:19:35;4.10;;;3.80;;
4634;SDS011;2330;48.158;11.816;2023-05-20T00:22:02;4.10;;;3.80;;
4634;SDS011;2330;48.158;11.816;2023-05-20T00:24:29;4.20;;;3.90;;
4634;SDS011;2330;48.158;11.816;2023-05-20T00:26:55;4.27;;;3.90;;
4634;SDS011;2330;48.158;11.816;2023-05-20T00:29:22;4.53;;;4.10;;
4634;SDS011;2330;48.158;11.816;2023-05-20T00:31:49;4.33;;;3.93;;
4634;SDS011;2330;48.158;11.816;2023-05-20T00:34:16;4.33;;;4.03;;
4634;SDS011;2330;48.158;11.816;2023-05-20T00:36:42;5.50;;;5.00;;
4634;SDS011;2330;48.158;11.816;2023-05-20T00:39:09;4.23;;;3.90;;
4634;SDS011;2330;48.158;11.816;2023-05-20T00:41:36;5.40;;;4.33;;
4634;SDS011;2330;48.158;11.816;2023-05-20T00:44:04;5.00;;;4.60;;
4634;SDS011;2330;48.158;11.816;2023-05-20T00:46:31;5.57;;;4.80;;
4634;SDS011;2330;48.158;11.816;2023-05-20T00:48:58;4.50;;;4.20;;
4634;SDS011;2330;48.158;11.816;2023-05-20T00:51:25;5.90;;;5.13;;
4634;SDS011;2330;48.158;11.816;2023-05-20T00:53:52;5.53;;;5.13;;
4634;SDS011;2330;48.158;11.816;2023-05-20T00:56:20;5.90;;;5.20;;
4634;SDS011;2330;48.158;11.816;2023-05-20T00:58:47;5.40;;;5.00;;
4634;SDS011;2330;48.158;11.816;2023-05-20T01:01:15;5.10;;;4.53;;
4634;SDS011;2330;48.158;11.816;2023-05-20T01:03:41;5.77;;;5.20;;
4634;SDS011;2330;48.158;11.816;2023-05-20T01:06:08;6.33;;;5.30;;
4634;SDS011;2330;48.158;11.816;2023-05-20T01:08:35;4.63;;;4.23;;
4634;SDS011;2330;48.158;11.816;2023-05-20T01:11:03;6.13;;;5.53;;
4634;SDS011;2330;48.158;11.816;2023-05-20T01:13:38;6.07;;;5.57;;
4634;SDS011;2330;48.158;11.816;2023-05-20T01:16:11;4.90;;;4.50;;
4634;SDS011;2330;48.158;11.816;2023-05-20T01:18:42;6.10;;;5.60;;
4634;SDS011;2330;48.158;11.816;2023-05-20T01:21:10;5.10;;;4.70;;
4634;SDS011;2330;48.158;11.816;2023-05-20T01:23:39;5.30;;;4.83;;
4634;SDS011;2330;48.158;11.816;2023-05-20T01:26:07;5.87;;;5.20;;
4634;SDS011;2330;48.158;11.816;2023-05-20T01:28:38;5.53;;;5.03;;
4634;SDS011;2330;48.158;11.816;2023-05-20T01:31:13;5.80;;;5.40;;
4634;SDS011;2330;48.158;11.816;2023-05-20T01:33:46;6.33;;;5.73;;
4634;SDS011;2330;48.158;11.816;2023-05-20T01:36:19;5.30;;;4.80;;
4634;SDS011;2330;48.158;11.816;2023-05-20T01:38:47;6.10;;;5.60;;
4634;SDS011;2330;48.158;11.816;2023-05-20T01:41:15;5.60;;;5.20;;
4634;SDS011;2330;48.158;11.816;2023-05-20T01:43:42;6.43;;;5.83;;
4634;SDS011;2330;48.158;11.816;2023-05-20T01:46:10;6.20;;;5.60;;
4634;SDS011;2330;48.158;11.816;2023-05-20T01:48:37;7.10;;;6.30;;
4634;SDS011;2330;48.158;11.816;2023-05-20T01:51:03;7.23;;;6.60;;
4634;SDS011;2330;48.158;11.816;2023-05-20T01:53:30;5.80;;;5.23;;
4634;SDS011;2330;48.158;11.816;2023-05-20T01:55:57;6.70;;;6.00;;
4634;SDS011;2330;48.158;11.816;2023-05-20T01:58:24;7.00;;;6.27;;
4634;SDS011;2330;48.158;11.816;2023-05-20T02:00:51;7.60;;;7.00;;
4634;SDS011;2330;48.158;11.816;2023-05-20T02:03:17;8.00;;;7.00;;
4634;SDS011;2330;48.158;11.816;2023-05-20T02:05:44;7.30;;;6.70;;
4634;SDS011;2330;48.158;11.816;2023-05-20T02:08:11;6.97;;;6.30;;
4634;SDS011;2330;48.158;11.816;2023-05-20T02:10:37;6.23;;;5.57;;
4634;SDS011;2330;48.158;11.816;2023-05-20T02:13:04;7.03;;;6.43;;
4634;SDS011;2330;48.158;11.816;2023-05-20T02:15:31;6.77;;;6.10;;
4634;SDS011;2330;48.158;11.816;2023-05-20T02:17:58;9.70;;;6.80;;
4634;SDS011;2330;48.158;11.816;2023-05-20T02:20:25;6.17;;;5.40;;
4634;SDS011;2330;48.158;11.816;2023-05-20T02:22:51;6.87;;;6.17;;
4634;SDS011;2330;48.158;11.816;2023-05-20T02:25:18;6.30;;;5.80;;
4634;SDS011;2330;48.158;11.816;2023-05-20T02:27:45;7.70;;;7.00;;
4634;SDS011;2330;48.158;11.816;2023-05-20T02:30:12;8.37;;;7.67;;
4634;SDS011;2330;48.158;11.816;2023-05-20T02:32:40;7.40;;;6.77;;
4634;SDS011;2330;48.158;11.816;2023-05-20T02:35:07;8.00;;;7.20;;
4634;SDS011;2330;48.158;11.816;2023-05-20T02:37:34;7.10;;;6.40;;
4634;SDS011;2330;48.158;11.816;2023-05-20T02:40:01;8.07;;;7.40;;
4634;SDS011;2330;48.158;11.816;2023-05-20T02:42:28;7.33;;;6.80;;
4634;SDS011;2330;48.158;11.816;2023-05-20T02:44:54;7.57;;;6.80;;
4634;SDS011;2330;48.158;11.816;2023-05-20T02:47:24;8.10;;;7.07;;
4634;SDS011;2330;48.158;11.816;2023-05-20T02:49:51;8.87;;;8.00;;
4634;SDS011;2330;48.158;11.816;2023-05-20T02:52:17;6.50;;;6.00;;
4634;SDS011;2330;48.158;11.816;2023-05-20T02:54:45;8.33;;;7.30;;
4634;SDS011;2330;48.158;11.816;2023-05-20T02:57:11;7.70;;;7.07;;
4634;SDS011;2330;48.158;11.816;2023-05-20T02:59:38;7.77;;;7.03;;
4634;SDS011;2330;48.158;11.816;2023-05-20T03:02:05;7.87;;;7.27;;
4634;SDS011;2330;48.158;11.816;2023-05-20T03:04:32;8.47;;;7.67;;
4634;SDS011;2330;48.158;11.816;2023-05-20T03:07:04;8.03;;;7.33;;
4634;SDS011;2330;48.158;11.816;2023-05-20T03:09:32;9.07;;;8.20;;
4634;SDS011;2330;48.158;11.816;2023-05-20T03:11:59;8.93;;;8.13;;
4634;SDS011;2330;48.158;11.816;2023-05-20T03:14:26;8.13;;;7.53;;
4634;SDS011;2330;48.158;11.816;2023-05-20T03:16:53;7.47;;;6.87;;
4634;SDS011;2330;48.158;11.816;2023-05-20T03:19:22;7.23;;;6.70;;
4634;SDS011;2330;48.158;11.816;2023-05-20T03:21:49;7.73;;;7.03;;
4634;SDS011;2330;48.158;11.816;2023-05-20T03:24:16;8.33;;;7.50;;
4634;SDS011;2330;48.158;11.816;2023-05-20T03:26:43;9.57;;;8.77;;
4634;SDS011;2330;48.158;11.816;2023-05-20T03:29:11;9.03;;;8.27;;
4634;SDS011;2330;48.158;11.816;2023-05-20T03:31:38;8.13;;;7.33;;
4634;SDS011;2330;48.158;11.816;2023-05-20T03:34:06;8.53;;;7.83;;
4634;SDS011;2330;48.158;11.816;2023-05-20T03:36:33;9.57;;;8.70;;
4634;SDS011;2330;48.158;11.816;2023-05-20T03:39:00;8.20;;;7.50;;
4634;SDS011;2330;48.158;11.816;2023-05-20T03:41:27;9.07;;;8.30;;
4634;SDS011;2330;48.158;11.816;2023-05-20T03:43:54;8.20;;;7.40;;
4634;SDS011;2330;48.158;11.816;2023-05-20T03:46:21;8.67;;;7.80;;
4634;SDS011;2330;48.158;11.816;2023-05-20T03:48:48;8.57;;;7.77;;
4634;SDS011;2330;48.158;11.816;2023-05-20T03:51:15;8.73;;;8.00;;
4634;SDS011;2330;48.158;11.816;2023-05-20T03:53:41;8.10;;;7.50;;
4634;SDS011;2330;48.158;11.816;2023-05-20T03:56:08;9.63;;;8.80;;
4634;SDS011;2330;48.158;11.816;2023-05-20T03:58:35;8.47;;;7.77;;
4634;SDS011;2330;48.158;11.816;2023-05-20T04:01:04;8.83;;;8.07;;
4634;SDS011;2330;48.158;11.816;2023-05-20T04:03:30;10.90;;;9.90;;
4634;SDS011;2330;48.158;11.816;2023-05-20T04:05:57;10.17;;;9.37;;
4634;SDS011;2330;48.158;11.816;2023-05-20T04:08:24;10.87;;;9.77;;
4634;SDS011;2330;48.158;11.816;2023-05-20T04:10:54;9.93;;;9.03;;
4634;SDS011;2330;48.158;11.816;2023-05-20T04:13:23;11.43;;;10.00;;
4634;SDS011;2330;48.158;11.816;2023-05-20T04:15:51;13.50;;;12.20;;
4634;SDS011;2330;48.158;11.816;2023-05-20T04:18:18;10.70;;;9.73;;
4634;SDS011;2330;48.158;11.816;2023-05-20T04:20:45;10.80;;;9.90;;
4634;SDS011;2330;48.158;11.816;2023-05-20T04:23:12;11.47;;;10.50;;
4634;SDS011;2330;48.158;11.816;2023-05-20T04:25:39;9.77;;;8.93;;
4634;SDS011;2330;48.158;11.816;2023-05-20T04:28:07;9.13;;;8.30;;
4634;SDS011;2330;48.158;11.816;2023-05-20T04:30:35;11.43;;;10.27;;
4634;SDS011;2330;48.158;11.816;2023-05-20T04:33:02;11.20;;;10.20;;
4634;SDS011;2330;48.158;11.816;2023-05-20T04:35:29;9.33;;;8.53;;
4634;SDS011;2330;48.158;11.816;2023-05-20T04:37:56;11.57;;;10.47;;
4634;SDS011;2330;48.158;11.816;2023-05-20T04:40:23;11.60;;;10.33;;
4634;SDS011;2330;48.158;11.816;2023-05-20T04:42:50;12.57;;;11.53;;
4634;SDS011;2330;48.158;11.816;2023-05-20T04:45:16;13.40;;;12.13;;
4634;SDS011;2330;48.158;11.816;2023-05-20T04:47:43;9.63;;;8.73;;
4634;SDS011;2330;48.158;11.816;2023-05-20T04:50:11;11.37;;;10.47;;
4634;SDS011;2330;48.158;11.816;2023-05-20T04:52:41;12.10;;;11.10;;
4634;SDS011;2330;48.158;11.816;2023-05-20T04:55:08;13.43;;;11.53;;
4634;SDS011;2330;48.158;11.816;2023-05-20T04:57:36;12.33;;;11.23;;
4634;SDS011;2330;48.158;11.816;2023-05-20T05:00:05;12.07;;;10.97;;
4634;SDS011;2330;48.158;11.816;2023-05-20T05:02:35;13.03;;;11.90;;
4634;SDS011;2330;48.158;11.816;2023-05-20T05:05:02;13.03;;;11.93;;
4634;SDS011;2330;48.158;11.816;2023-05-20T05:07:29;10.70;;;9.80;;
4634;SDS011;2330;48.158;11.816;2023-05-20T05:09:57;11.90;;;10.90;;
4634;SDS011;2330;48.158;11.816;2023-05-20T05:12:24;12.57;;;11.53;;
4634;SDS011;2330;48.158;11.816;2023-05-20T05:14:50;14.50;;;12.77;;
4634;SDS011;2330;48.158;11.816;2023-05-20T05:17:17;13.43;;;12.20;;
4634;SDS011;2330;48.158;11.816;2023-05-20T05:19:44;13.30;;;12.20;;
4634;SDS011;2330;48.158;11.816;2023-05-20T05:22:10;12.47;;;11.33;;
4634;SDS011;2330;48.158;11.816;2023-05-20T05:24:37;11.90;;;10.80;;
4634;SDS011;2330;48.158;11.816;2023-05-20T05:27:04;13.80;;;12.50;;
4634;SDS011;2330;48.158;11.816;2023-05-20T05:29:31;11.83;;;10.83;;
4634;SDS011;2330;48.158;11.816;2023-05-20T05:31:57;12.50;;;11.40;;
4634;SDS011;2330;48.158;11.816;2023-05-20T05:34:24;12.20;;;11.10;;
4634;SDS011;2330;48.158;11.816;2023-05-20T05:36:51;12.50;;;11.40;;
4634;SDS011;2330;48.158;11.816;2023-05-20T05:39:18;11.57;;;10.50;;
4634;SDS011;2330;48.158;11.816;2023-05-20T05:41:45;11.23;;;10.20;;
4634;SDS011;2330;48.158;11.816;2023-05-20T05:44:11;9.83;;;9.03;;
4634;SDS011;2330;48.158;11.816;2023-05-20T05:46:38;11.73;;;10.73;;
4634;SDS011;2330;48.158;11.816;2023-05-20T05:49:05;12.97;;;11.77;;
4634;SDS011;2330;48.158;11.816;2023-05-20T05:51:32;10.80;;;9.90;;
4634;SDS011;2330;48.158;11.816;2023-05-20T05:53:58;11.53;;;10.43;;
4634;SDS011;2330;48.158;11.816;2023-05-20T05:56:25;12.37;;;11.17;;
4634;SDS011;2330;48.158;11.816;2023-05-20T05:58:52;11.03;;;9.50;;
4634;SDS011;2330;48.158;11.816;2023-05-20T06:01:19;10.53;;;9.67;;
4634;SDS011;2330;48.158;11.816;2023-05-20T06:03:45;10.90;;;10.03;;
4634;SDS011;2330;48.158;11.816;2023-05-20T06:06:12;8.90;;;8.20;;
4634;SDS011;2330;48.158;11.816;2023-05-20T06:08:40;11.20;;;10.20;;
4634;SDS011;2330;48.158;11.816;2023-05-20T06:11:07;8.60;;;7.90;;
4634;SDS011;2330;48.158;11.816;2023-05-20T06:13:34;9.73;;;8.83;;
4634;SDS011;2330;48.158;11.816;2023-05-20T06:16:01;11.77;;;10.67;;
4634;SDS011;2330;48.158;11.816;2023-05-20T06:18:28;11.93;;;10.93;;
4634;SDS011;2330;48.158;11.816;2023-05-20T06:20:55;11.80;;;10.70;;
4634;SDS011;2330;48.158;11.816;2023-05-20T06:23:23;10.37;;;9.37;;
4634;SDS011;2330;48.158;11.816;2023-05-20T06:25:50;12.10;;;11.00;;
4634;SDS011;2330;48.158;11.816;2023-05-20T06:28:17;11.83;;;10.80;;
4634;SDS011;2330;48.158;11.816;2023-05-20T06:30:43;10.80;;;9.90;;
4634;SDS011;2330;48.158;11.816;2023-05-20T06:33:10;10.77;;;9.80;;
4634;SDS011;2330;48.158;11.816;2023-05-20T06:35:37;9.87;;;8.93;;
4634;SDS011;2330;48.158;11.816;2023-05-20T06:38:04;9.40;;;8.60;;
4634;SDS011;2330;48.158;11.816;2023-05-20T06:40:31;10.17;;;9.13;;
4634;SDS011;2330;48.158;11.816;2023-05-20T06:42:58;9.73;;;8.83;;
4634;SDS011;2330;48.158;11.816;2023-05-20T06:45:25;11.20;;;9.30;;
4634;SDS011;2330;48.158;11.816;2023-05-20T06:47:51;10.77;;;9.77;;
4634;SDS011;2330;48.158;11.816;2023-05-20T06:50:19;8.90;;;8.10;;
4634;SDS011;2330;48.158;11.816;2023-05-20T06:52:46;12.60;;;9.33;;
4634;SDS011;2330;48.158;11.816;2023-05-20T06:55:13;10.33;;;9.20;;
4634;SDS011;2330;48.158;11.816;2023-05-20T06:57:40;8.60;;;7.90;;
4634;SDS011;2330;48.158;11.816;2023-05-20T07:00:06;9.83;;;8.90;;
4634;SDS011;2330;48.158;11.816;2023-05-20T07:02:34;9.03;;;8.23;;
4634;SDS011;2330;48.158;11.816;2023-05-20T07:05:01;7.90;;;7.10;;
4634;SDS011;2330;48.158;11.816;2023-05-20T07:07:28;7.83;;;7.23;;
4634;SDS011;2330;48.158;11.816;2023-05-20T07:09:54;8.63;;;7.87;;
4634;SDS011;2330;48.158;11.816;2023-05-20T07:12:22;8.93;;;8.20;;
4634;SDS011;2330;48.158;11.816;2023-05-20T07:14:49;7.90;;;7.20;;
4634;SDS011;2330;48.158;11.816;2023-05-20T07:17:15;8.50;;;7.77;;
4634;SDS011;2330;48.158;11.816;2023-05-20T07:19:42;6.63;;;5.93;;
4634;SDS011;2330;48.158;11.816;2023-05-20T07:22:09;7.90;;;7.20;;
4634;SDS011;2330;48.158;11.816;2023-05-20T07:24:36;7.27;;;6.67;;
4634;SDS011;2330;48.158;11.816;2023-05-20T07:27:03;7.30;;;6.67;;
4634;SDS011;2330;48.158;11.816;2023-05-20T07:29:30;5.90;;;5.40;;
4634;SDS011;2330;48.158;11.816;2023-05-20T07:31:57;6.37;;;5.77;;
4634;SDS011;2330;48.158;11.816;2023-05-20T07:34:24;6.03;;;5.00;;
4634;SDS011;2330;48.158;11.816;2023-05-20T07:36:51;7.90;;;4.57;;
4634;SDS011;2330;48.158;11.816;2023-05-20T07:39:18;5.50;;;5.00;;
4634;SDS011;2330;48.158;11.816;2023-05-20T07:41:45;7.13;;;5.10;;
4634;SDS011;2330;48.158;11.816;2023-05-20T07:44:12;6.20;;;5.30;;
4634;SDS011;2330;48.158;11.816;2023-05-20T07:46:39;6.57;;;4.97;;
4634;SDS011;2330;48.158;11.816;2023-05-20T07:49:07;7.10;;;5.57;;
4634;SDS011;2330;48.158;11.816;2023-05-20T07:51:34;6.00;;;5.17;;
4634;SDS011;2330;48.158;11.816;2023-05-20T07:54:00;5.03;;;4.53;;
4634;SDS011;2330;48.158;11.816;2023-05-20T07:56:28;4.60;;;3.90;;
4634;SDS011;2330;48.158;11.816;2023-05-20T07:58:55;4.90;;;4.40;;
4634;SDS011;2330;48.158;11.816;2023-05-20T08:01:24;5.17;;;4.77;;
4634;SDS011;2330;48.158;11.816;2023-05-20T08:03:51;4.50;;;4.10;;
4634;SDS011;2330;48.158;11.816;2023-05-20T08:06:21;4.40;;;4.00;;
4634;SDS011;2330;48.158;11.816;2023-05-20T08:08:51;6.33;;;5.00;;
4634;SDS011;2330;48.158;11.816;2023-05-20T08:11:21;5.40;;;4.73;;
4634;SDS011;2330;48.158;11.816;2023-05-20T08:13:48;4.93;;;4.57;;
4634;SDS011;2330;48.158;11.816;2023-05-20T08:16:15;4.10;;;3.70;;
4634;SDS011;2330;48.158;11.816;2023-05-20T08:18:42;5.20;;;4.70;;
4634;SDS011;2330;48.158;11.816;2023-05-20T08:21:10;5.23;;;4.43;;
4634;SDS011;2330;48.158;11.816;2023-05-20T08:23:37;8.00;;;4.60;;
4634;SDS011;2330;48.158;11.816;2023-05-20T08:26:05;4.33;;;4.03;;
4634;SDS011;2330;48.158;11.816;2023-05-20T08:28:33;5.30;;;4.20;;
4634;SDS011;2330;48.158;11.816;2023-05-20T08:31:03;4.60;;;4.20;;
4634;SDS011;2330;48.158;11.816;2023-05-20T08:33:30;4.50;;;4.10;;
4634;SDS011;2330;48.158;11.816;2023-05-20T08:35:56;3.90;;;3.60;;
4634;SDS011;2330;48.158;11.816;2023-05-20T08:38:23;3.80;;;3.50;;
4634;SDS011;2330;48.158;11.816;2023-05-20T08:40:50;7.70;;;4.30;;
4634;SDS011;2330;48.158;11.816;2023-05-20T08:43:18;3.87;;;3.57;;
4634;SDS011;2330;48.158;11.816;2023-05-20T08:45:46;4.00;;;3.70;;
4634;SDS011;2330;48.158;11.816;2023-05-20T08:48:13;3.80;;;3.50;;
4634;SDS011;2330;48.158;11.816;2023-05-20T08:50:43;8.40;;;3.90;;
4634;SDS011;2330;48.158;11.816;2023-05-20T08:53:14;3.97;;;3.63;;
4634;SDS011;2330;48.158;11.816;2023-05-20T08:55:42;3.50;;;3.20;;
4634;SDS011;2330;48.158;11.816;2023-05-20T08:58:17;4.63;;;3.47;;
4634;SDS011;2330;48.158;11.816;2023-05-20T09:00:44;4.37;;;3.70;;
4634;SDS011;2330;48.158;11.816;2023-05-20T09:03:11;4.30;;;3.90;;
4634;SDS011;2330;48.158;11.816;2023-05-20T09:05:38;4.30;;;3.90;;
4634;SDS011;2330;48.158;11.816;2023-05-20T09:08:09;4.30;;;3.87;;
4634;SDS011;2330;48.158;11.816;2023-05-20T09:10:37;6.83;;;3.97;;
4634;SDS011;2330;48.158;11.816;2023-05-20T09:13:05;4.90;;;4.03;;
4634;SDS011;2330;48.158;11.816;2023-05-20T09:15:33;6.20;;;3.77;;
4634;SDS011;2330;48.158;11.816;2023-05-20T09:18:02;4.53;;;4.23;;
4634;SDS011;2330;48.158;11.816;2023-05-20T09:20:31;5.20;;;4.70;;
4634;SDS011;2330;48.158;11.816;2023-05-20T09:23:00;5.53;;;4.20;;
4634;SDS011;2330;48.158;11.816;2023-05-20T09:25:28;6.60;;;4.90;;
4634;SDS011;2330;48.158;11.816;2023-05-20T09:27:55;4.10;;;3.80;;
4634;SDS011;2330;48.158;11.816;2023-05-20T09:30:22;4.73;;;4.27;;
4634;SDS011;2330;48.158;11.816;2023-05-20T09:32:56;4.50;;;4.10;;
4634;SDS011;2330;48.158;11.816;2023-05-20T09:35:25;5.03;;;3.80;;
4634;SDS011;2330;48.158;11.816;2023-05-20T09:37:54;4.03;;;3.73;;
4634;SDS011;2330;48.158;11.816;2023-05-20T09:40:22;9.00;;;3.93;;
4634;SDS011;2330;48.158;11.816;2023-05-20T09:43:01;3.70;;;3.40;;
4634;SDS011;2330;48.158;11.816;2023-05-20T09:45:29;3.67;;;3.37;;
4634;SDS011;2330;48.158;11.816;2023-05-20T09:47:56;4.73;;;4.20;;
4634;SDS011;2330;48.158;11.816;2023-05-20T09:50:25;5.30;;;4.80;;
4634;SDS011;2330;48.158;11.816;2023-05-20T09:52:54;4.30;;;3.90;;
4634;SDS011;2330;48.158;11.816;2023-05-20T09:55:23;4.90;;;3.80;;
4634;SDS011;2330;48.158;11.816;2023-05-20T09:57:50;5.30;;;3.00;;
4634;SDS011;2330;48.158;11.816;2023-05-20T10:00:19;4.17;;;3.60;;
4634;SDS011;2330;48.158;11.816;2023-05-20T10:02:47;3.97;;;3.60;;
4634;SDS011;2330;48.158;11.816;2023-05-20T10:05:23;4.17;;;3.77;;
4634;SDS011;2330;48.158;11.816;2023-05-20T10:13:18;3.60;;;3.30;;
4634;SDS011;2330;48.158;11.816;2023-05-20T10:18:47;3.40;;;2.93;;
4634;SDS011;2330;48.158;11.816;2023-05-20T10:21:34;4.33;;;3.27;;
4634;SDS011;2330;48.158;11.816;2023-05-20T10:24:05;4.00;;;3.60;;
4634;SDS011;2330;48.158;11.816;2023-05-20T10:26:34;3.87;;;3.53;;
4634;SDS011;2330;48.158;11.816;2023-05-20T10:29:13;3.67;;;3.37;;
4634;SDS011;2330;48.158;11.816;2023-05-20T10:31:44;7.80;;;3.27;;
4634;SDS011;2330;48.158;11.816;2023-05-20T10:34:14;4.10;;;3.07;;
4634;SDS011;2330;48.158;11.816;2023-05-20T10:36:56;3.83;;;3.47;;
4634;SDS011;2330;48.158;11.816;2023-05-20T10:39:24;10.03;;;2.77;;
4634;SDS011;2330;48.158;11.816;2023-05-20T10:42:08;3.47;;;3.17;;
4634;SDS011;2330;48.158;11.816;2023-05-20T10:44:45;3.80;;;3.50;;
4634;SDS011;2330;48.158;11.816;2023-05-20T10:47:13;3.70;;;3.27;;
4634;SDS011;2330;48.158;11.816;2023-05-20T10:49:43;6.33;;;3.83;;
4634;SDS011;2330;48.158;11.816;2023-05-20T10:52:15;3.87;;;3.57;;
4634;SDS011;2330;48.158;11.816;2023-05-20T10:54:43;3.73;;;3.43;;
4634;SDS011;2330;48.158;11.816;2023-05-20T10:57:21;5.13;;;3.30;;
4634;SDS011;2330;48.158;11.816;2023-05-20T10:59:48;4.03;;;3.73;;
4634;SDS011;2330;48.158;11.816;2023-05-20T11:02:16;4.37;;;3.53;;
4634;SDS011;2330;48.158;11.816;2023-05-20T11:04:51;4.40;;;4.00;;
4634;SDS011;2330;48.158;11.816;2023-05-20T11:07:26;3.70;;;3.40;;
4634;SDS011;2330;48.158;11.816;2023-05-20T11:09:54;3.03;;;2.80;;
4634;SDS011;2330;48.158;11.816;2023-05-20T11:12:25;3.60;;;3.30;;
4634;SDS011;2330;48.158;11.816;2023-05-20T11:14:52;4.63;;;3.50;;
4634;SDS011;2330;48.158;11.816;2023-05-20T11:17:19;4.63;;;3.60;;
4634;SDS011;2330;48.158;11.816;2023-05-20T11:19:46;4.80;;;3.70;;
4634;SDS011;2330;48.158;11.816;2023-05-20T11:22:13;3.80;;;3.40;;
4634;SDS011;2330;48.158;11.816;2023-05-20T11:24:40;3.57;;;3.27;;
4634;SDS011;2330;48.158;11.816;2023-05-20T11:27:07;3.40;;;3.10;;
4634;SDS011;2330;48.158;11.816;2023-05-20T11:29:34;6.03;;;3.63;;
4634;SDS011;2330;48.158;11.816;2023-05-20T11:32:01;4.23;;;3.83;;
4634;SDS011;2330;48.158;11.816;2023-05-20T11:34:34;3.37;;;3.17;;
4634;SDS011;2330;48.158;11.816;2023-05-20T11:37:09;3.50;;;3.10;;
4634;SDS011;2330;48.158;11.816;2023-05-20T11:39:36;4.30;;;4.00;;
4634;SDS011;2330;48.158;11.816;2023-05-20T11:42:03;4.03;;;3.73;;
4634;SDS011;2330;48.158;11.816;2023-05-20T11:44:31;3.80;;;3.40;;
4634;SDS011;2330;48.158;11.816;2023-05-20T11:46:59;3.87;;;3.30;;
4634;SDS011;2330;48.158;11.816;2023-05-20T11:49:27;3.40;;;3.10;;
4634;SDS011;2330;48.158;11.816;2023-05-20T11:51:54;4.20;;;3.80;;
4634;SDS011;2330;48.158;11.816;2023-05-20T11:54:22;4.17;;;3.87;;
4634;SDS011;2330;48.158;11.816;2023-05-20T11:56:49;4.63;;;4.20;;
4634;SDS011;2330;48.158;11.816;2023-05-20T11:59:16;4.30;;;3.60;;
4634;SDS011;2330;48.158;11.816;2023-05-20T12:01:43;3.63;;;2.93;;
4634;SDS011;2330;48.158;11.816;2023-05-20T12:04:11;7.73;;;3.47;;
4634;SDS011;2330;48.158;11.816;2023-05-20T12:06:42;3.53;;;3.20;;
4634;SDS011;2330;48.158;11.816;2023-05-20T12:09:09;4.60;;;3.90;;
4634;SDS011;2330;48.158;11.816;2023-05-20T12:11:37;4.13;;;3.73;;
4634;SDS011;2330;48.158;11.816;2023-05-20T12:14:06;9.37;;;4.30;;
4634;SDS011;2330;48.158;11.816;2023-05-20T12:16:34;4.67;;;4.23;;
4634;SDS011;2330;48.158;11.816;2023-05-20T12:19:02;5.33;;;4.80;;
4634;SDS011;2330;48.158;11.816;2023-05-20T12:21:29;9.03;;;4.30;;
4634;SDS011;2330;48.158;11.816;2023-05-20T12:23:58;6.40;;;4.83;;
4634;SDS011;2330;48.158;11.816;2023-05-20T12:26:26;5.50;;;4.27;;
4634;SDS011;2330;48.158;11.816;2023-05-20T12:28:54;7.03;;;5.10;;
4634;SDS011;2330;48.158;11.816;2023-05-20T12:31:21;6.40;;;5.07;;
4634;SDS011;2330;48.158;11.816;2023-05-20T12:33:48;10.33;;;5.70;;
4634;SDS011;2330;48.158;11.816;2023-05-20T12:36:17;7.77;;;5.37;;
4634;SDS011;2330;48.158;11.816;2023-05-20T12:38:45;6.80;;;5.20;;
4634;SDS011;2330;48.158;11.816;2023-05-20T12:41:12;6.30;;;5.70;;
4634;SDS011;2330;48.158;11.816;2023-05-20T12:43:39;6.53;;;5.83;;
4634;SDS011;2330;48.158;11.816;2023-05-20T12:46:06;5.70;;;5.30;;
4634;SDS011;2330;48.158;11.816;2023-05-20T12:48:33;6.83;;;6.10;;
4634;SDS011;2330;48.158;11.816;2023-05-20T12:50:59;7.63;;;6.00;;
4634;SDS011;2330;48.158;11.816;2023-05-20T12:53:26;10.50;;;5.90;;
4634;SDS011;2330;48.158;11.816;2023-05-20T12:55:53;7.20;;;5.90;;
4634;SDS011;2330;48.158;11.816;2023-05-20T12:58:20;9.20;;;5.77;;
4634;SDS011;2330;48.158;11.816;2023-05-20T13:00:47;11.70;;;6.50;;
4634;SDS011;2330;48.158;11.816;2023-05-20T13:03:13;7.70;;;5.63;;
4634;SDS011;2330;48.158;11.816;2023-05-20T13:05:40;7.30;;;5.97;;
4634;SDS011;2330;48.158;11.816;2023-05-20T13:08:07;6.90;;;6.03;;
4634;SDS011;2330;48.158;11.816;2023-05-20T13:10:35;6.40;;;5.80;;
4634;SDS011;2330;48.158;11.816;2023-05-20T13:13:02;9.70;;;6.80;;
4634;SDS011;2330;48.158;11.816;2023-05-20T13:15:29;5.93;;;5.30;;
4634;SDS011;2330;48.158;11.816;2023-05-20T13:17:58;10.00;;;6.30;;
4634;SDS011;2330;48.158;11.816;2023-05-20T13:20:27;11.23;;;6.43;;
4634;SDS011;2330;48.158;11.816;2023-05-20T13:22:54;8.83;;;6.00;;
4634;SDS011;2330;48.158;11.816;2023-05-20T13:25:21;8.90;;;5.80;;
4634;SDS011;2330;48.158;11.816;2023-05-20T13:27:48;8.13;;;5.70;;
4634;SDS011;2330;48.158;11.816;2023-05-20T13:30:15;8.13;;;5.47;;
4634;SDS011;2330;48.158;11.816;2023-05-20T13:32:41;5.93;;;5.37;;
4634;SDS011;2330;48.158;11.816;2023-05-20T13:35:08;5.97;;;5.37;;
4634;SDS011;2330;48.158;11.816;2023-05-20T13:37:35;5.93;;;5.43;;
4634;SDS011;2330;48.158;11.816;2023-05-20T13:40:02;5.43;;;4.93;;
4634;SDS011;2330;48.158;11.816;2023-05-20T13:42:29;6.23;;;5.73;;
4634;SDS011;2330;48.158;11.816;2023-05-20T13:44:56;6.97;;;6.37;;
4634;SDS011;2330;48.158;11.816;2023-05-20T13:47:23;6.60;;;5.83;;
4634;SDS011;2330;48.158;11.816;2023-05-20T13:49:49;7.23;;;6.13;;
4634;SDS011;2330;48.158;11.816;2023-05-20T13:52:16;10.10;;;5.93;;
4634;SDS011;2330;48.158;11.816;2023-05-20T13:54:43;6.97;;;5.77;;
4634;SDS011;2330;48.158;11.816;2023-05-20T13:57:12;6.10;;;5.50;;
4634;SDS011;2330;48.158;11.816;2023-05-20T13:59:39;6.93;;;6.33;;
4634;SDS011;2330;48.158;11.816;2023-05-20T14:02:06;9.37;;;5.90;;
4634;SDS011;2330;48.158;11.816;2023-05-20T14:04:33;7.37;;;5.03;;
4634;SDS011;2330;48.158;11.816;2023-05-20T14:07:05;12.33;;;5.93;;
4634;SDS011;2330;48.158;11.816;2023-05-20T14:09:35;6.87;;;6.07;;
4634;SDS011;2330;48.158;11.816;2023-05-20T14:12:02;7.07;;;6.40;;
4634;SDS011;2330;48.158;11.816;2023-05-20T14:14:29;6.03;;;5.53;;
4634;SDS011;2330;48.158;11.816;2023-05-20T14:16:56;8.13;;;6.80;;
4634;SDS011;2330;48.158;11.816;2023-05-20T14:19:23;10.23;;;6.70;;
4634;SDS011;2330;48.158;11.816;2023-05-20T14:21:51;14.60;;;6.30;;
4634;SDS011;2330;48.158;11.816;2023-05-20T14:24:18;8.10;;;7.20;;
4634;SDS011;2330;48.158;11.816;2023-05-20T14:26:48;7.00;;;6.30;;
4634;SDS011;2330;48.158;11.816;2023-05-20T14:29:15;6.20;;;5.60;;
4634;SDS011;2330;48.158;11.816;2023-05-20T14:31:42;6.73;;;6.13;;
4634;SDS011;2330;48.158;11.816;2023-05-20T14:34:08;7.17;;;5.00;;
4634;SDS011;2330;48.158;11.816;2023-05-20T14:36:36;7.47;;;6.17;;
4634;SDS011;2330;48.158;11.816;2023-05-20T14:39:03;7.20;;;6.50;;
4634;SDS011;2330;48.158;11.816;2023-05-20T14:41:30;14.93;;;6.70;;
4634;SDS011;2330;48.158;11.816;2023-05-20T14:43:57;7.77;;;6.97;;
4634;SDS011;2330;48.158;11.816;2023-05-20T14:46:23;6.63;;;5.93;;
4634;SDS011;2330;48.158;11.816;2023-05-20T14:48:51;6.00;;;5.50;;
4634;SDS011;2330;48.158;11.816;2023-05-20T14:51:18;6.77;;;5.57;;
4634;SDS011;2330;48.158;11.816;2023-05-20T14:53:45;6.70;;;6.03;;
4634;SDS011;2330;48.158;11.816;2023-05-20T14:56:12;6.10;;;5.60;;
4634;SDS011;2330;48.158;11.816;2023-05-20T14:58:38;7.07;;;6.30;;
4634;SDS011;2330;48.158;11.816;2023-05-20T15:01:05;8.23;;;6.03;;
4634;SDS011;2330;48.158;11.816;2023-05-20T15:03:32;7.63;;;5.87;;
4634;SDS011;2330;48.158;11.816;2023-05-20T15:05:59;7.20;;;6.50;;
4634;SDS011;2330;48.158;11.816;2023-05-20T15:08:26;9.53;;;6.00;;